createdAt,value
2019-01-10T00:01:30.268Z,1.00
2019-01-10T00:04:11.532Z,1.00
2019-01-10T00:06:52.700Z,1.00
2019-01-10T00:09:33.436Z,1.00
2019-01-10T00:12:13.839Z,1.00
2019-01-10T00:14:54.584Z,1.00
2019-01-10T00:17:35.194Z,1.00
2019-01-10T00:20:15.916Z,1.00
2019-01-10T00:22:56.388Z,1.00
2019-01-10T00:25:37.288Z,1.00
2019-01-10T00:28:19.256Z,1.00
2019-01-10T00:31:00.240Z,1.00
2019-01-10T00:33:40.794Z,1.00
2019-01-10T00:36:21.663Z,1.00
2019-01-10T00:39:02.652Z,1.00
2019-01-10T00:41:43.047Z,1.00
2019-01-10T00:44:23.733Z,1.00
2019-01-10T00:47:04.383Z,1.00
2019-01-10T00:49:45.104Z,1.00
2019-01-10T00:52:25.592Z,1.00
2019-01-10T00:55:06.439Z,1.00
2019-01-10T00:57:48.299Z,1.20
2019-01-10T01:00:28.919Z,2.70
2019-01-10T01:03:09.787Z,3.10
2019-01-10T01:05:50.266Z,4.40
2019-01-10T01:08:30.979Z,3.80
2019-01-10T01:11:11.388Z,3.90
2019-01-10T01:13:52.103Z,4.00
2019-01-10T01:16:32.547Z,2.80
2019-01-10T01:19:13.305Z,1.50
2019-01-10T01:21:54.351Z,1.10
2019-01-10T01:24:35.623Z,1.00
2019-01-10T01:27:16.104Z,1.00
2019-01-10T01:29:56.647Z,1.00
2019-01-10T01:32:37.296Z,1.00
2019-01-10T01:35:18.127Z,1.00
2019-01-10T01:37:58.812Z,1.00
2019-01-10T01:40:39.338Z,1.00
2019-01-10T01:43:20.049Z,1.00
2019-01-10T01:46:00.768Z,1.00
2019-01-10T01:48:41.200Z,1.00
2019-01-10T01:51:21.995Z,1.00
2019-01-10T01:54:02.467Z,1.00
2019-01-10T01:56:43.016Z,1.00
2019-01-10T01:59:23.668Z,1.00
2019-01-10T02:02:04.367Z,1.00
2019-01-10T02:04:45.072Z,1.00
2019-01-10T02:07:25.695Z,1.00
2019-01-10T02:10:06.288Z,1.00
2019-01-10T02:12:50.894Z,1.00
2019-01-10T02:15:31.908Z,1.00
2019-01-10T02:18:12.488Z,1.00
2019-01-10T02:20:53.268Z,1.00
2019-01-10T02:23:33.918Z,1.00
2019-01-10T02:26:14.608Z,1.00
2019-01-10T02:28:55.152Z,1.00
2019-01-10T02:31:36.037Z,1.00
2019-01-10T02:34:16.795Z,1.00
2019-01-10T02:36:57.211Z,1.00
2019-01-10T02:39:37.911Z,1.00
2019-01-10T02:42:18.615Z,1.00
2019-01-10T02:44:59.199Z,1.00
2019-01-10T02:47:40.260Z,1.00
2019-01-10T02:50:21.073Z,1.00
2019-01-10T02:53:01.660Z,1.00
2019-01-10T02:55:42.330Z,1.00
2019-01-10T02:58:23.166Z,1.00
2019-01-10T03:01:04.116Z,1.00
2019-01-10T03:03:44.897Z,1.00
2019-01-10T03:06:27.029Z,1.00
2019-01-10T03:09:07.979Z,1.00
2019-01-10T03:11:48.332Z,1.00
2019-01-10T03:14:28.927Z,1.00
2019-01-10T03:17:09.451Z,1.40
2019-01-10T03:19:50.247Z,2.00
2019-01-10T03:22:31.196Z,1.00
2019-01-10T03:25:11.545Z,1.00
2019-01-10T03:27:52.116Z,1.00
2019-01-10T03:30:32.869Z,1.00
2019-01-10T03:33:13.450Z,1.00
2019-01-10T03:35:54.184Z,1.00
2019-01-10T03:38:34.956Z,1.00
2019-01-10T03:41:15.538Z,1.00
2019-01-10T03:43:57.823Z,1.00
2019-01-10T03:46:38.804Z,1.00
2019-01-10T03:49:19.632Z,1.00
2019-01-10T03:52:00.276Z,1.00
2019-01-10T03:54:40.685Z,1.00
2019-01-10T03:57:21.207Z,1.00
2019-01-10T04:00:01.897Z,1.00
2019-01-10T04:02:42.704Z,1.00
2019-01-10T04:05:23.464Z,1.00
2019-01-10T04:08:04.249Z,1.00
2019-01-10T04:10:44.963Z,1.00
2019-01-10T04:13:25.676Z,1.00
2019-01-10T04:16:06.351Z,1.00
2019-01-10T04:18:46.947Z,1.00
2019-01-10T04:21:27.728Z,1.00
2019-01-10T04:24:08.292Z,1.00
2019-01-10T04:26:48.895Z,1.00
2019-01-10T04:29:29.574Z,1.00
2019-01-10T04:32:10.468Z,1.00
2019-01-10T04:34:51.212Z,1.00
2019-01-10T04:37:31.680Z,1.00
2019-01-10T04:40:12.356Z,1.00
2019-01-10T04:42:53.001Z,1.00
2019-01-10T04:48:46.920Z,1.00
2019-01-10T04:51:27.499Z,1.00
2019-01-10T04:54:08.240Z,1.00
2019-01-10T04:56:48.932Z,1.00
2019-01-10T04:59:29.924Z,1.00
2019-01-10T05:02:18.306Z,1.00
2019-01-10T05:04:53.433Z,1.00
2019-01-10T05:07:34.160Z,1.00
2019-01-10T05:10:14.951Z,1.00
2019-01-10T05:12:55.801Z,1.00
2019-01-10T05:15:38.222Z,1.00
2019-01-10T05:18:19.284Z,1.00
2019-01-10T05:20:59.827Z,1.00
2019-01-10T05:23:40.488Z,1.00
2019-01-10T05:26:21.186Z,1.00
2019-01-10T05:29:01.696Z,1.00
2019-01-10T05:31:30.475Z,1.00
2019-01-10T05:34:18.552Z,1.00
2019-01-10T05:40:32.862Z,1.00
2019-01-10T05:43:20.883Z,1.00
2019-01-10T05:46:08.879Z,1.00
2019-01-10T05:48:56.871Z,1.00
2019-01-10T05:51:44.940Z,1.00
2019-01-10T05:54:25.589Z,1.00
2019-01-10T05:57:06.363Z,1.00
2019-01-10T05:59:47.191Z,1.00
2019-01-10T06:02:27.897Z,1.00
2019-01-10T06:05:10.575Z,1.00
2019-01-10T06:07:51.608Z,1.00
2019-01-10T06:10:32.244Z,1.00
2019-01-10T06:13:01.043Z,1.00
2019-01-10T06:15:49.043Z,1.00
2019-01-10T06:21:44.151Z,1.00
2019-01-10T06:27:26.399Z,1.00
2019-01-10T06:30:15.857Z,1.00
2019-01-10T06:33:03.919Z,1.00
2019-01-10T06:35:51.920Z,1.00
2019-01-10T06:38:39.915Z,1.00
2019-01-10T06:41:27.988Z,1.00
2019-01-10T06:44:16.084Z,1.00
2019-01-10T06:47:04.155Z,1.00
2019-01-10T06:49:52.160Z,1.00
2019-01-10T06:52:40.152Z,1.00
2019-01-10T06:55:20.578Z,1.00
2019-01-10T06:58:01.304Z,1.00
2019-01-10T07:00:42.091Z,1.00
2019-01-10T07:03:22.811Z,1.00
2019-01-10T07:06:03.297Z,1.00
2019-01-10T07:08:44.078Z,1.00
2019-01-10T07:11:24.656Z,1.00
2019-01-10T07:14:05.132Z,1.00
2019-01-10T07:16:53.532Z,1.00
2019-01-10T07:22:34.280Z,1.00
2019-01-10T07:25:15.218Z,1.00
2019-01-10T07:27:56.739Z,1.00
2019-01-10T07:30:37.377Z,1.00
2019-01-10T07:33:18.079Z,1.00
2019-01-10T07:35:58.511Z,1.00
2019-01-10T07:38:38.963Z,1.00
2019-01-10T07:41:19.724Z,1.00
2019-01-10T07:44:00.278Z,1.00
2019-01-10T07:46:41.148Z,1.00
2019-01-10T07:49:21.661Z,1.00
2019-01-10T07:52:02.520Z,1.00
2019-01-10T07:54:43.052Z,1.00
2019-01-10T07:57:24.012Z,1.00
2019-01-10T08:00:04.867Z,1.00
2019-01-10T08:02:46.199Z,1.00
2019-01-10T08:05:26.740Z,1.00
2019-01-10T08:08:07.375Z,1.00
2019-01-10T08:10:48.091Z,1.00
2019-01-10T08:13:28.673Z,1.00
2019-01-10T08:16:09.415Z,1.00
2019-01-10T08:18:51.439Z,1.00
2019-01-10T08:21:31.975Z,1.00
2019-01-10T08:26:55.118Z,1.00
2019-01-10T08:29:35.424Z,1.00
2019-01-10T08:32:16.167Z,1.00
2019-01-10T08:34:56.572Z,1.00
2019-01-10T08:37:37.364Z,1.00
2019-01-10T08:40:17.879Z,1.00
2019-01-10T08:42:58.591Z,1.00
2019-01-10T08:45:39.416Z,1.00
2019-01-10T08:48:19.928Z,1.00
2019-01-10T08:51:00.607Z,1.00
2019-01-10T08:53:41.072Z,1.00
2019-01-10T08:56:21.792Z,1.00
2019-01-10T08:59:02.563Z,1.00
2019-01-10T09:01:43.367Z,1.00
2019-01-10T09:04:23.987Z,1.00
2019-01-10T09:07:04.868Z,1.00
2019-01-10T09:09:45.479Z,1.00
2019-01-10T09:12:26.181Z,1.00
2019-01-10T09:15:07.568Z,1.00
2019-01-10T09:17:48.035Z,1.00
2019-01-10T09:20:28.756Z,1.00
2019-01-10T09:23:09.487Z,1.00
2019-01-10T09:25:50.132Z,1.00
2019-01-10T09:28:18.995Z,1.00
2019-01-10T09:31:07.052Z,1.00
2019-01-10T09:33:55.056Z,1.00
2019-01-10T09:36:43.043Z,1.00
2019-01-10T09:39:31.047Z,1.00
2019-01-10T09:42:19.043Z,1.00
2019-01-10T09:45:07.506Z,1.00
2019-01-10T09:47:55.515Z,1.00
2019-01-10T09:50:43.512Z,1.00
2019-01-10T09:53:31.587Z,1.00
2019-01-10T09:56:12.407Z,1.00
2019-01-10T09:58:53.119Z,1.00
2019-01-10T10:01:33.817Z,1.00
2019-01-10T10:04:14.227Z,1.00
2019-01-10T10:06:54.823Z,1.00
2019-01-10T10:09:35.307Z,1.00
2019-01-10T10:12:15.983Z,1.00
2019-01-10T10:14:56.423Z,1.00
2019-01-10T10:17:37.035Z,1.00
2019-01-10T10:20:18.015Z,1.00
2019-01-10T10:22:59.183Z,1.00
2019-01-10T10:25:39.672Z,1.00
2019-01-10T10:28:20.380Z,1.00
2019-01-10T10:31:01.141Z,1.00
2019-01-10T10:33:41.946Z,1.00
2019-01-10T10:36:22.616Z,1.00
2019-01-10T10:39:04.039Z,1.00
2019-01-10T10:41:45.131Z,1.00
2019-01-10T10:44:25.933Z,1.00
2019-01-10T10:47:06.635Z,1.00
2019-01-10T10:49:47.351Z,1.00
2019-01-10T10:52:28.116Z,1.00
2019-01-10T10:55:08.623Z,1.00
2019-01-10T10:57:49.378Z,1.00
2019-01-10T11:00:30.215Z,1.00
2019-01-10T11:03:10.647Z,1.00
2019-01-10T11:05:51.481Z,1.00
2019-01-10T11:08:31.791Z,1.00
2019-01-10T11:11:12.691Z,1.00
2019-01-10T11:13:53.439Z,1.00
2019-01-10T11:16:34.087Z,1.00
2019-01-10T11:19:14.759Z,1.00
2019-01-10T11:21:55.455Z,1.00
2019-01-10T11:24:35.835Z,1.00
2019-01-10T11:27:16.520Z,1.00
2019-01-10T11:29:57.323Z,1.00
2019-01-10T11:32:38.016Z,1.00
2019-01-10T11:35:18.548Z,1.00
2019-01-10T11:37:59.034Z,1.00
2019-01-10T11:40:39.800Z,1.00
2019-01-10T11:43:20.351Z,1.00
2019-01-10T11:46:01.046Z,1.00
2019-01-10T11:48:41.559Z,1.00
2019-01-10T11:51:22.367Z,1.00
2019-01-10T11:54:04.548Z,1.00
2019-01-10T11:56:45.859Z,1.00
2019-01-10T11:59:27.543Z,1.00
2019-01-10T12:02:08.387Z,1.00
2019-01-10T12:04:49.032Z,1.00
2019-01-10T12:07:29.444Z,1.00
2019-01-10T12:10:09.896Z,1.00
2019-01-10T12:12:50.611Z,1.00
2019-01-10T12:15:31.139Z,1.00
2019-01-10T12:18:11.935Z,1.00
2019-01-10T12:20:52.475Z,1.00
2019-01-10T12:23:32.901Z,1.00
2019-01-10T12:26:13.401Z,1.00
2019-01-10T12:28:54.067Z,1.00
2019-01-10T12:31:34.655Z,1.00
2019-01-10T12:34:15.228Z,1.00
2019-01-10T12:37:00.504Z,1.00
2019-01-10T12:39:38.548Z,1.00
2019-01-10T12:42:18.999Z,1.00
2019-01-10T12:44:59.654Z,1.00
2019-01-10T12:47:40.344Z,1.00
2019-01-10T12:50:21.024Z,1.00
2019-01-10T12:53:01.579Z,1.00
2019-01-10T12:55:42.336Z,1.00
2019-01-10T12:58:22.839Z,1.00
2019-01-10T13:01:03.345Z,1.00
2019-01-10T13:03:44.211Z,1.00
2019-01-10T13:06:25.075Z,1.00
2019-01-10T13:09:07.693Z,1.00
2019-01-10T13:11:48.591Z,1.00
2019-01-10T13:14:29.618Z,1.00
2019-01-10T13:17:10.276Z,1.00
2019-01-10T13:19:50.721Z,1.00
2019-01-10T13:22:31.592Z,1.00
2019-01-10T13:25:12.367Z,1.00
2019-01-10T13:27:53.230Z,1.00
2019-01-10T13:30:34.011Z,1.00
2019-01-10T13:33:14.840Z,1.00
2019-01-10T13:35:55.591Z,1.00
2019-01-10T13:38:36.267Z,1.00
2019-01-10T13:41:17.168Z,1.00
2019-01-10T13:43:57.803Z,1.00
2019-01-10T13:46:38.559Z,1.00
2019-01-10T13:49:19.112Z,1.00
2019-01-10T13:52:00.111Z,1.00
2019-01-10T13:54:40.660Z,1.00
2019-01-10T13:57:21.474Z,1.00
2019-01-10T14:00:02.008Z,1.00
2019-01-10T14:02:42.514Z,1.00
2019-01-10T14:05:23.465Z,1.00
2019-01-10T14:08:04.243Z,1.00
2019-01-10T14:10:46.496Z,1.00
2019-01-10T14:13:26.932Z,1.00
2019-01-10T14:16:07.570Z,1.00
2019-01-10T14:18:48.279Z,1.00
2019-01-10T14:21:29.056Z,1.00
2019-01-10T14:24:09.572Z,1.00
2019-01-10T14:26:50.237Z,1.00
2019-01-10T14:29:31.124Z,1.00
2019-01-10T14:32:11.791Z,1.00
2019-01-10T14:34:52.343Z,1.00
2019-01-10T14:37:32.988Z,1.00
2019-01-10T14:40:13.591Z,1.00
2019-01-10T14:42:54.559Z,1.00
2019-01-10T14:45:37.273Z,1.00
2019-01-10T14:48:17.941Z,1.00
2019-01-10T14:50:58.487Z,1.00
2019-01-10T14:53:39.048Z,1.00
2019-01-10T14:56:20.264Z,1.00
2019-01-10T14:59:00.956Z,1.00
2019-01-10T15:01:41.388Z,1.00
2019-01-10T15:04:21.946Z,1.00
2019-01-10T15:07:02.528Z,1.00
2019-01-10T15:09:43.247Z,1.00
2019-01-10T15:12:23.732Z,1.00
2019-01-10T15:15:04.875Z,1.00
2019-01-10T15:17:45.531Z,1.00
2019-01-10T15:20:26.121Z,1.00
2019-01-10T15:23:08.071Z,1.00
2019-01-10T15:25:49.188Z,1.00
2019-01-10T15:28:29.648Z,1.00
2019-01-10T15:31:09.975Z,1.00
2019-01-10T15:33:53.736Z,1.00
2019-01-10T15:36:34.369Z,1.00
2019-01-10T15:39:15.100Z,1.00
2019-01-10T15:41:55.583Z,1.00
2019-01-10T15:44:36.182Z,1.00
2019-01-10T15:47:19.868Z,1.00
2019-01-10T15:49:59.652Z,1.00
2019-01-10T15:52:39.996Z,1.00
2019-01-10T15:55:20.696Z,1.00
2019-01-10T15:58:01.373Z,1.00
2019-01-10T16:00:41.879Z,1.00
2019-01-10T16:03:22.790Z,1.00
2019-01-10T16:06:03.500Z,1.00
2019-01-10T16:08:45.133Z,1.00
2019-01-10T16:11:25.647Z,1.00
2019-01-10T16:14:06.211Z,1.00
2019-01-10T16:16:46.912Z,1.00
2019-01-10T16:19:27.631Z,1.00
2019-01-10T16:22:08.299Z,1.00
2019-01-10T16:24:49.208Z,1.00
2019-01-10T16:27:30.312Z,1.00
2019-01-10T16:30:11.105Z,1.00
2019-01-10T16:32:51.749Z,1.00
2019-01-10T16:35:32.639Z,1.00
2019-01-10T16:38:13.191Z,1.00
2019-01-10T16:40:54.090Z,1.00
2019-01-10T16:43:34.583Z,1.00
2019-01-10T16:46:15.571Z,1.00
2019-01-10T16:48:56.376Z,1.00
2019-01-10T16:51:36.843Z,1.00
2019-01-10T16:54:17.564Z,1.00
2019-01-10T16:56:58.087Z,1.00
2019-01-10T16:59:38.900Z,1.00
2019-01-10T17:02:19.665Z,1.00
2019-01-10T17:05:00.471Z,1.00
2019-01-10T17:07:41.072Z,1.00
2019-01-10T17:10:21.679Z,1.00
2019-01-10T17:13:02.459Z,1.00
2019-01-10T17:15:42.990Z,1.00
2019-01-10T17:18:24.939Z,1.00
2019-01-10T17:21:06.418Z,1.00
2019-01-10T17:23:46.912Z,1.00
2019-01-10T17:26:27.879Z,1.00
2019-01-10T17:29:08.792Z,1.00
2019-01-10T17:31:49.312Z,1.00
2019-01-10T17:34:29.935Z,1.00
2019-01-10T17:37:10.357Z,1.00
2019-01-10T17:39:51.304Z,1.00
2019-01-10T17:42:33.106Z,1.00
2019-01-10T17:45:15.201Z,1.00
2019-01-10T17:47:56.015Z,1.00
2019-01-10T17:50:36.948Z,1.00
2019-01-10T17:53:17.479Z,1.00
2019-01-10T17:55:58.725Z,1.00
2019-01-10T17:58:39.826Z,1.00
2019-01-10T18:01:20.517Z,1.00
2019-01-10T18:04:01.838Z,1.00
2019-01-10T18:06:42.989Z,1.00
2019-01-10T18:09:23.863Z,1.00
2019-01-10T18:12:04.575Z,1.00
2019-01-10T18:14:45.265Z,1.00
2019-01-10T18:17:26.134Z,1.00
2019-01-10T18:20:07.805Z,1.00
2019-01-10T18:22:48.923Z,1.00
2019-01-10T18:25:29.643Z,1.00
2019-01-10T18:28:10.381Z,1.00
2019-01-10T18:30:50.968Z,1.00
2019-01-10T18:33:31.700Z,1.00
2019-01-10T18:36:12.608Z,1.00
2019-01-10T18:38:53.351Z,1.00
2019-01-10T18:41:34.189Z,1.00
2019-01-10T18:44:14.953Z,1.00
2019-01-10T18:46:55.594Z,1.00
2019-01-10T18:49:36.360Z,1.00
2019-01-10T18:52:17.607Z,1.00
2019-01-10T18:55:00.284Z,1.00
2019-01-10T18:57:40.697Z,1.00
2019-01-10T19:00:21.486Z,1.00
2019-01-10T19:03:02.166Z,1.00
2019-01-10T19:05:42.950Z,1.00
2019-01-10T19:08:23.619Z,1.00
2019-01-10T19:11:04.116Z,1.00
2019-01-10T19:13:44.935Z,1.00
2019-01-10T19:16:25.812Z,1.00
2019-01-10T19:19:06.363Z,1.00
2019-01-10T19:21:46.851Z,1.00
2019-01-10T19:24:27.484Z,1.00
2019-01-10T19:27:08.186Z,1.00
2019-01-10T19:29:48.936Z,1.00
2019-01-10T19:32:29.595Z,1.00
2019-01-10T19:35:10.200Z,1.00
2019-01-10T19:37:50.892Z,1.00
2019-01-10T19:40:31.463Z,1.00
2019-01-10T19:43:12.463Z,1.00
2019-01-10T19:45:53.879Z,1.00
2019-01-10T19:48:34.803Z,1.00
2019-01-10T19:51:15.328Z,1.00
2019-01-10T19:53:55.981Z,1.00
2019-01-10T19:56:36.815Z,1.00
2019-01-10T19:59:17.459Z,1.00
2019-01-10T20:01:58.164Z,1.00
2019-01-10T20:04:39.010Z,1.00
2019-01-10T20:07:20.039Z,1.00
2019-01-10T20:10:00.761Z,1.00
2019-01-10T20:12:41.587Z,1.00
2019-01-10T20:15:22.259Z,1.00
2019-01-10T20:18:03.379Z,1.00
2019-01-10T20:20:43.963Z,1.00
2019-01-10T20:23:25.251Z,1.00
2019-01-10T20:26:06.130Z,1.00
2019-01-10T20:28:47.089Z,1.00
2019-01-10T20:31:27.853Z,1.00
2019-01-10T20:34:08.586Z,1.00
2019-01-10T20:36:49.662Z,1.00
2019-01-10T20:39:30.079Z,1.00
2019-01-10T20:42:10.780Z,1.00
2019-01-10T20:44:51.593Z,1.00
2019-01-10T20:47:32.295Z,1.00
2019-01-10T20:50:13.020Z,1.00
2019-01-10T20:52:53.631Z,1.00
2019-01-10T20:55:34.699Z,1.00
2019-01-10T20:58:15.264Z,1.00
2019-01-10T21:00:57.460Z,1.00
2019-01-10T21:03:38.514Z,1.00
2019-01-10T21:06:19.249Z,1.00
2019-01-10T21:08:59.837Z,1.00
2019-01-10T21:11:40.773Z,1.00
2019-01-10T21:14:21.513Z,1.00
2019-01-10T21:17:02.101Z,1.00
2019-01-10T21:19:45.236Z,1.00
2019-01-10T21:22:26.331Z,1.00
2019-01-10T21:25:08.071Z,1.00
2019-01-10T21:27:48.637Z,1.00
2019-01-10T21:30:29.296Z,1.00
2019-01-10T21:33:10.027Z,1.00
2019-01-10T21:35:50.627Z,1.00
2019-01-10T21:38:31.337Z,1.00
2019-01-10T21:41:12.202Z,1.00
2019-01-10T21:43:52.804Z,1.00
2019-01-10T21:46:33.543Z,1.00
2019-01-10T21:49:14.245Z,1.00
2019-01-10T21:51:55.121Z,1.00
2019-01-10T21:54:37.481Z,1.00
2019-01-10T21:57:19.149Z,1.00
2019-01-10T22:00:00.420Z,1.00
2019-01-10T22:02:41.448Z,1.00
2019-01-10T22:05:22.371Z,1.00
2019-01-10T22:08:04.823Z,1.00
2019-01-10T22:10:45.774Z,1.00
2019-01-10T22:13:26.417Z,1.00
2019-01-10T22:16:07.010Z,1.00
2019-01-10T22:18:47.664Z,1.00
2019-01-10T22:21:28.389Z,1.00
2019-01-10T22:24:09.551Z,1.00
2019-01-10T22:26:50.430Z,1.00
2019-01-10T22:29:31.422Z,1.00
2019-01-10T22:32:12.651Z,1.00
2019-01-10T22:34:53.923Z,1.00
2019-01-10T22:37:34.833Z,1.00
2019-01-10T22:40:15.983Z,1.00
2019-01-10T22:42:57.101Z,1.00
2019-01-10T22:45:37.665Z,1.00
2019-01-10T22:48:37.325Z,1.00
2019-01-10T22:51:19.095Z,1.00
2019-01-10T22:54:07.292Z,1.00
2019-01-10T22:56:48.324Z,1.00
2019-01-10T23:11:49.864Z,1.00
2019-01-10T23:14:49.924Z,1.00
2019-01-10T23:23:50.875Z,1.00
2019-01-10T23:33:06.959Z,1.00
2019-01-10T23:35:53.156Z,1.00
2019-01-10T23:38:37.324Z,1.00
2019-01-10T23:41:37.124Z,1.00
2019-01-10T23:44:28.350Z,1.00
2019-01-10T23:53:31.836Z,1.00
2019-01-10T23:56:47.181Z,1.00
